sensor_id;sensor_type;location;lat;lon;timestamp;pressure;altitude;pressure_sealevel;temperature;humidity
47785;BME280;35233;55.686;37.848;2023-03-18T00:00:42;101424.34;;;15.77;38.62
47785;BME280;35233;55.686;37.848;2023-03-18T00:03:08;101429.75;;;15.74;38.53
47785;BME280;35233;55.686;37.848;2023-03-18T00:05:33;101427.94;;;15.75;38.50
47785;BME280;35233;55.686;37.848;2023-03-18T00:08:01;101428.94;;;15.69;38.65
47785;BME280;35233;55.686;37.848;2023-03-18T00:10:28;101427.97;;;15.73;38.57
47785;BME280;35233;55.686;37.848;2023-03-18T00:12:53;101423.69;;;15.65;38.61
47785;BME280;35233;55.686;37.848;2023-03-18T00:15:19;101422.00;;;15.60;39.08
47785;BME280;35233;55.686;37.848;2023-03-18T00:17:46;101426.44;;;15.60;38.60
47785;BME280;35233;55.686;37.848;2023-03-18T00:20:14;101425.59;;;15.58;39.17
47785;BME280;35233;55.686;37.848;2023-03-18T00:22:41;101426.50;;;15.57;38.66
47785;BME280;35233;55.686;37.848;2023-03-18T00:25:09;101433.66;;;15.55;38.94
47785;BME280;35233;55.686;37.848;2023-03-18T00:27:36;101447.69;;;15.63;38.62
47785;BME280;35233;55.686;37.848;2023-03-18T00:30:03;101427.66;;;15.45;38.54
47785;BME280;35233;55.686;37.848;2023-03-18T00:32:29;101431.19;;;15.46;38.78
47785;BME280;35233;55.686;37.848;2023-03-18T00:34:55;101433.72;;;15.52;38.68
47785;BME280;35233;55.686;37.848;2023-03-18T00:37:21;101444.31;;;15.55;38.75
47785;BME280;35233;55.686;37.848;2023-03-18T00:40:07;101448.94;;;15.45;38.63
47785;BME280;35233;55.686;37.848;2023-03-18T00:42:37;101454.22;;;15.47;38.73
47785;BME280;35233;55.686;37.848;2023-03-18T00:45:13;101432.25;;;15.35;38.77
47785;BME280;35233;55.686;37.848;2023-03-18T00:47:38;101458.66;;;15.48;38.64
47785;BME280;35233;55.686;37.848;2023-03-18T00:50:05;101449.94;;;15.39;38.98
47785;BME280;35233;55.686;37.848;2023-03-18T00:52:32;101454.22;;;15.48;38.81
47785;BME280;35233;55.686;37.848;2023-03-18T00:54:58;101458.72;;;15.45;38.77
47785;BME280;35233;55.686;37.848;2023-03-18T00:57:25;101453.56;;;15.35;39.12
47785;BME280;35233;55.686;37.848;2023-03-18T00:59:50;101461.47;;;15.38;38.81
47785;BME280;35233;55.686;37.848;2023-03-18T01:02:16;101458.94;;;15.32;38.73
47785;BME280;35233;55.686;37.848;2023-03-18T01:04:42;101464.16;;;15.38;38.96
47785;BME280;35233;55.686;37.848;2023-03-18T01:07:08;101467.78;;;15.34;39.01
47785;BME280;35233;55.686;37.848;2023-03-18T01:09:36;101473.19;;;15.30;38.87
47785;BME280;35233;55.686;37.848;2023-03-18T01:12:08;101465.13;;;15.34;39.10
47785;BME280;35233;55.686;37.848;2023-03-18T01:14:35;101467.03;;;15.28;38.95
47785;BME280;35233;55.686;37.848;2023-03-18T01:17:03;101475.91;;;15.28;39.09
47785;BME280;35233;55.686;37.848;2023-03-18T01:19:29;101481.13;;;15.33;39.05
47785;BME280;35233;55.686;37.848;2023-03-18T01:21:55;101468.97;;;15.18;38.95
47785;BME280;35233;55.686;37.848;2023-03-18T01:24:21;101476.81;;;15.26;38.81
47785;BME280;35233;55.686;37.848;2023-03-18T01:26:47;101472.53;;;15.19;39.07
47785;BME280;35233;55.686;37.848;2023-03-18T01:29:12;101483.16;;;15.20;39.15
47785;BME280;35233;55.686;37.848;2023-03-18T01:31:38;101489.28;;;15.25;39.12
47785;BME280;35233;55.686;37.848;2023-03-18T01:34:03;101493.72;;;15.25;38.96
47785;BME280;35233;55.686;37.848;2023-03-18T01:36:29;101489.44;;;15.16;39.17
47785;BME280;35233;55.686;37.848;2023-03-18T01:38:54;101496.44;;;15.20;39.05
47785;BME280;35233;55.686;37.848;2023-03-18T01:41:23;101496.50;;;15.19;39.13
47785;BME280;35233;55.686;37.848;2023-03-18T01:43:50;101507.97;;;15.21;38.88
47785;BME280;35233;55.686;37.848;2023-03-18T01:46:43;101502.81;;;15.13;39.16
47785;BME280;35233;55.686;37.848;2023-03-18T01:51:57;101500.28;;;15.04;39.18
47785;BME280;35233;55.686;37.848;2023-03-18T01:54:25;101514.34;;;15.12;39.40
47785;BME280;35233;55.686;37.848;2023-03-18T01:56:51;101516.22;;;15.07;39.45
47785;BME280;35233;55.686;37.848;2023-03-18T01:59:19;101500.38;;;14.99;39.21
47785;BME280;35233;55.686;37.848;2023-03-18T02:01:53;101523.19;;;15.14;39.12
47785;BME280;35233;55.686;37.848;2023-03-18T02:04:22;101512.81;;;14.99;39.11
47785;BME280;35233;55.686;37.848;2023-03-18T02:06:50;101517.88;;;15.12;39.09
47785;BME280;35233;55.686;37.848;2023-03-18T02:09:16;101523.25;;;15.09;38.97
47785;BME280;35233;55.686;37.848;2023-03-18T02:11:45;101516.28;;;15.01;39.49
47785;BME280;35233;55.686;37.848;2023-03-18T02:14:14;101526.94;;;15.02;38.98
47785;BME280;35233;55.686;37.848;2023-03-18T02:16:51;101524.31;;;14.99;38.85
47785;BME280;35233;55.686;37.848;2023-03-18T02:24:48;101540.31;;;14.98;39.55
47785;BME280;35233;55.686;37.848;2023-03-18T02:29:45;101539.41;;;14.99;39.09
47785;BME280;35233;55.686;37.848;2023-03-18T02:32:13;101534.16;;;14.96;39.21
47785;BME280;35233;55.686;37.848;2023-03-18T02:34:41;101535.13;;;14.90;39.45
47785;BME280;35233;55.686;37.848;2023-03-18T02:37:07;101514.00;;;14.81;39.25
47785;BME280;35233;55.686;37.848;2023-03-18T02:39:33;101536.91;;;14.88;39.32
47785;BME280;35233;55.686;37.848;2023-03-18T02:42:00;101556.31;;;14.96;39.23
47785;BME280;35233;55.686;37.848;2023-03-18T02:44:26;101550.22;;;14.89;39.25
47785;BME280;35233;55.686;37.848;2023-03-18T02:46:55;101550.16;;;14.92;39.40
47785;BME280;35233;55.686;37.848;2023-03-18T02:49:23;101562.56;;;14.92;39.35
47785;BME280;35233;55.686;37.848;2023-03-18T02:51:50;101545.94;;;14.79;39.09
47785;BME280;35233;55.686;37.848;2023-03-18T02:54:19;101563.59;;;14.85;39.39
47785;BME280;35233;55.686;37.848;2023-03-18T02:56:46;101557.50;;;14.78;39.44
47785;BME280;35233;55.686;37.848;2023-03-18T02:59:12;101565.28;;;14.90;39.29
47785;BME280;35233;55.686;37.848;2023-03-18T03:01:39;101575.06;;;14.88;39.31
47785;BME280;35233;55.686;37.848;2023-03-18T03:04:06;101573.31;;;14.86;39.43
47785;BME280;35233;55.686;37.848;2023-03-18T03:06:33;101569.81;;;14.84;39.19
47785;BME280;35233;55.686;37.848;2023-03-18T03:08:58;101576.00;;;14.84;39.44
47785;BME280;35233;55.686;37.848;2023-03-18T03:11:26;101584.00;;;14.84;39.57
47785;BME280;35233;55.686;37.848;2023-03-18T03:13:52;101588.41;;;14.85;39.42
47785;BME280;35233;55.686;37.848;2023-03-18T03:16:18;101583.13;;;14.84;39.23
47785;BME280;35233;55.686;37.848;2023-03-18T03:18:43;101579.56;;;14.83;39.42
47785;BME280;35233;55.686;37.848;2023-03-18T03:21:10;101575.06;;;14.88;39.28
47785;BME280;35233;55.686;37.848;2023-03-18T03:23:37;101579.56;;;14.83;39.40
47785;BME280;35233;55.686;37.848;2023-03-18T03:26:03;101583.13;;;14.82;39.44
47785;BME280;35233;55.686;37.848;2023-03-18T03:28:29;101585.84;;;14.79;39.08
47785;BME280;35233;55.686;37.848;2023-03-18T03:30:57;101582.25;;;14.80;39.15
47785;BME280;35233;55.686;37.848;2023-03-18T03:33:23;101588.50;;;14.79;39.35
47785;BME280;35233;55.686;37.848;2023-03-18T03:35:49;101593.81;;;14.81;39.29
47785;BME280;35233;55.686;37.848;2023-03-18T03:38:15;101582.25;;;14.80;39.12
47785;BME280;35233;55.686;37.848;2023-03-18T03:40:41;101585.84;;;14.79;39.39
47785;BME280;35233;55.686;37.848;2023-03-18T03:43:07;101583.28;;;14.71;39.70
47785;BME280;35233;55.686;37.848;2023-03-18T03:45:36;101590.28;;;14.77;39.34
47785;BME280;35233;55.686;37.848;2023-03-18T03:48:02;101578.78;;;14.77;38.98
47785;BME280;35233;55.686;37.848;2023-03-18T03:50:28;101595.56;;;14.80;39.58
47785;BME280;35233;55.686;37.848;2023-03-18T03:52:54;101599.97;;;14.83;39.13
47785;BME280;35233;55.686;37.848;2023-03-18T03:55:21;101583.22;;;14.78;39.33
47785;BME280;35233;55.686;37.848;2023-03-18T03:57:47;101585.84;;;14.79;38.96
47785;BME280;35233;55.686;37.848;2023-03-18T04:00:18;101592.06;;;14.78;39.23
47785;BME280;35233;55.686;37.848;2023-03-18T04:02:45;101605.25;;;14.87;39.11
47785;BME280;35233;55.686;37.848;2023-03-18T04:05:12;101599.91;;;14.87;39.38
47785;BME280;35233;55.686;37.848;2023-03-18T04:07:39;101583.22;;;14.78;39.32
47785;BME280;35233;55.686;37.848;2023-03-18T04:10:07;101598.13;;;14.89;39.10
47785;BME280;35233;55.686;37.848;2023-03-18T04:12:34;101601.56;;;14.94;39.19
47785;BME280;35233;55.686;37.848;2023-03-18T04:15:00;101594.44;;;14.97;38.74
47785;BME280;35233;55.686;37.848;2023-03-18T04:17:25;101602.38;;;15.01;38.59
47785;BME280;35233;55.686;37.848;2023-03-18T04:19:50;101611.19;;;15.05;38.81
47785;BME280;35233;55.686;37.848;2023-03-18T04:22:16;101597.78;;;15.11;38.55
47785;BME280;35233;55.686;37.848;2023-03-18T04:24:42;101602.84;;;15.28;38.35
47785;BME280;35233;55.686;37.848;2023-03-18T04:27:09;101611.59;;;15.34;38.13
47785;BME280;35233;55.686;37.848;2023-03-18T04:29:36;101611.47;;;15.40;37.90
47785;BME280;35233;55.686;37.848;2023-03-18T04:32:01;101613.81;;;15.60;37.82
47785;BME280;35233;55.686;37.848;2023-03-18T04:34:27;101620.78;;;15.69;37.07
47785;BME280;35233;55.686;37.848;2023-03-18T04:36:53;101617.47;;;15.55;37.85
47785;BME280;35233;55.686;37.848;2023-03-18T04:39:20;101624.47;;;15.59;37.65
47785;BME280;35233;55.686;37.848;2023-03-18T04:41:46;101627.94;;;15.66;37.65
47785;BME280;35233;55.686;37.848;2023-03-18T04:44:12;101622.63;;;15.64;37.72
47785;BME280;35233;55.686;37.848;2023-03-18T04:46:38;101613.75;;;15.63;37.56
47785;BME280;35233;55.686;37.848;2023-03-18T04:49:04;101627.13;;;15.60;37.74
47785;BME280;35233;55.686;37.848;2023-03-18T04:51:29;101634.13;;;15.66;37.45
47785;BME280;35233;55.686;37.848;2023-03-18T04:53:55;101628.72;;;15.72;37.45
47785;BME280;35233;55.686;37.848;2023-03-18T04:56:20;101633.09;;;15.76;37.33
47785;BME280;35233;55.686;37.848;2023-03-18T04:58:45;101626.13;;;15.68;37.58
47785;BME280;35233;55.686;37.848;2023-03-18T05:01:11;101627.88;;;15.67;37.68
47785;BME280;35233;55.686;37.848;2023-03-18T05:03:39;101634.06;;;15.72;37.71
47785;BME280;35233;55.686;37.848;2023-03-18T05:06:05;101634.06;;;15.72;37.52
47785;BME280;35233;55.686;37.848;2023-03-18T05:08:32;101633.22;;;15.67;37.27
47785;BME280;35233;55.686;37.848;2023-03-18T05:10:58;101650.97;;;15.70;37.78
47785;BME280;35233;55.686;37.848;2023-03-18T05:13:24;101649.41;;;15.56;37.98
47785;BME280;35233;55.686;37.848;2023-03-18T05:15:49;101648.38;;;15.63;37.97
47785;BME280;35233;55.686;37.848;2023-03-18T05:18:15;101643.97;;;15.62;37.87
47785;BME280;35233;55.686;37.848;2023-03-18T05:20:41;101655.56;;;15.60;38.24
47785;BME280;35233;55.686;37.848;2023-03-18T05:23:06;101644.66;;;15.75;37.72
47785;BME280;35233;55.686;37.848;2023-03-18T05:25:33;101646.41;;;15.76;37.78
47785;BME280;35233;55.686;37.848;2023-03-18T05:27:59;101653.94;;;15.51;38.28
47785;BME280;35233;55.686;37.848;2023-03-18T05:30:25;101653.13;;;15.46;38.53
47785;BME280;35233;55.686;37.848;2023-03-18T05:32:50;101661.97;;;15.48;38.60
47785;BME280;35233;55.686;37.848;2023-03-18T05:35:16;101657.63;;;15.43;38.55
47785;BME280;35233;55.686;37.848;2023-03-18T05:37:43;101655.91;;;15.38;38.65
47785;BME280;35233;55.686;37.848;2023-03-18T05:40:09;101660.25;;;15.44;38.74
47785;BME280;35233;55.686;37.848;2023-03-18T05:42:39;101658.56;;;15.40;38.39
47785;BME280;35233;55.686;37.848;2023-03-18T05:45:08;101659.44;;;15.40;38.59
47785;BME280;35233;55.686;37.848;2023-03-18T05:47:34;101662.94;;;15.43;38.34
47785;BME280;35233;55.686;37.848;2023-03-18T05:50:00;101668.13;;;15.53;38.37
47785;BME280;35233;55.686;37.848;2023-03-18T05:52:27;101646.88;;;15.49;38.53
47785;BME280;35233;55.686;37.848;2023-03-18T05:54:53;101666.22;;;15.60;38.43
47785;BME280;35233;55.686;37.848;2023-03-18T05:57:20;101664.16;;;15.77;37.91
47785;BME280;35233;55.686;37.848;2023-03-18T05:59:45;101666.63;;;15.88;37.68
47785;BME280;35233;55.686;37.848;2023-03-18T06:02:11;101665.75;;;15.88;38.21
47785;BME280;35233;55.686;37.848;2023-03-18T06:04:37;101671.00;;;15.92;37.88
47785;BME280;35233;55.686;37.848;2023-03-18T06:07:04;101665.59;;;15.97;37.95
47785;BME280;35233;55.686;37.848;2023-03-18T06:09:30;101666.53;;;15.94;37.54
47785;BME280;35233;55.686;37.848;2023-03-18T06:11:57;101663.88;;;15.94;37.57
47785;BME280;35233;55.686;37.848;2023-03-18T06:14:23;101669.28;;;15.90;38.02
47785;BME280;35233;55.686;37.848;2023-03-18T06:16:54;101662.19;;;15.89;37.82
47785;BME280;35233;55.686;37.848;2023-03-18T06:19:20;101670.91;;;15.97;37.78
47785;BME280;35233;55.686;37.848;2023-03-18T06:21:46;101667.53;;;15.89;37.79
47785;BME280;35233;55.686;37.848;2023-03-18T06:24:12;101671.88;;;15.94;37.83
47785;BME280;35233;55.686;37.848;2023-03-18T06:26:40;101670.91;;;15.97;38.12
47785;BME280;35233;55.686;37.848;2023-03-18T06:29:06;101679.81;;;15.96;37.91
47785;BME280;35233;55.686;37.848;2023-03-18T06:31:33;101676.22;;;15.98;37.95
47785;BME280;35233;55.686;37.848;2023-03-18T06:33:59;101682.47;;;15.97;37.69
47785;BME280;35233;55.686;37.848;2023-03-18T06:36:24;101679.72;;;16.02;37.91
47785;BME280;35233;55.686;37.848;2023-03-18T06:38:51;101666.50;;;15.96;37.69
47785;BME280;35233;55.686;37.848;2023-03-18T06:41:18;101681.50;;;16.03;37.75
47785;BME280;35233;55.686;37.848;2023-03-18T06:43:44;101684.09;;;16.04;37.41
47785;BME280;35233;55.686;37.848;2023-03-18T06:46:12;101687.47;;;16.14;37.61
47785;BME280;35233;55.686;37.848;2023-03-18T06:48:39;101683.13;;;16.10;37.66
47785;BME280;35233;55.686;37.848;2023-03-18T06:51:05;101691.09;;;16.12;37.66
47785;BME280;35233;55.686;37.848;2023-03-18T06:53:31;101691.03;;;16.15;37.24
47785;BME280;35233;55.686;37.848;2023-03-18T06:55:57;101691.09;;;16.12;37.82
47785;BME280;35233;55.686;37.848;2023-03-18T06:58:23;101684.88;;;16.11;37.75
47785;BME280;35233;55.686;37.848;2023-03-18T07:00:48;101684.75;;;16.17;37.64
47785;BME280;35233;55.686;37.848;2023-03-18T07:03:14;101674.16;;;16.14;37.19
47785;BME280;35233;55.686;37.848;2023-03-18T07:05:40;101682.06;;;16.20;37.51
47785;BME280;35233;55.686;37.848;2023-03-18T07:08:06;101690.88;;;16.22;37.80
47785;BME280;35233;55.686;37.848;2023-03-18T07:10:32;101685.53;;;16.24;37.34
47785;BME280;35233;55.686;37.848;2023-03-18T07:12:59;101682.94;;;16.19;37.60
47785;BME280;35233;55.686;37.848;2023-03-18T07:15:24;101690.81;;;16.25;37.31
47785;BME280;35233;55.686;37.848;2023-03-18T07:17:50;101708.63;;;16.25;37.47
47785;BME280;35233;55.686;37.848;2023-03-18T07:20:20;101700.59;;;16.26;37.42
47785;BME280;35233;55.686;37.848;2023-03-18T07:22:47;101706.81;;;16.27;37.42
47785;BME280;35233;55.686;37.848;2023-03-18T07:25:12;101690.75;;;16.30;37.54
47785;BME280;35233;55.686;37.848;2023-03-18T07:27:46;101693.31;;;16.35;36.99
47785;BME280;35233;55.686;37.848;2023-03-18T07:30:12;101707.47;;;16.38;36.89
47785;BME280;35233;55.686;37.848;2023-03-18T07:32:38;101691.56;;;16.34;36.70
47785;BME280;35233;55.686;37.848;2023-03-18T07:35:05;101695.09;;;16.36;36.77
47785;BME280;35233;55.686;37.848;2023-03-18T07:37:31;101695.97;;;16.35;36.62
47785;BME280;35233;55.686;37.848;2023-03-18T07:39:58;101694.03;;;16.43;37.01
47785;BME280;35233;55.686;37.848;2023-03-18T07:42:23;101685.16;;;17.62;36.05
47785;BME280;35233;55.686;37.848;2023-03-18T07:44:49;101677.75;;;19.03;33.54
47785;BME280;35233;55.686;37.848;2023-03-18T07:47:15;101685.22;;;19.48;32.64
47785;BME280;35233;55.686;37.848;2023-03-18T07:49:40;101668.13;;;20.05;31.48
47785;BME280;35233;55.686;37.848;2023-03-18T07:52:07;101682.94;;;20.40;30.60
47785;BME280;35233;55.686;37.848;2023-03-18T07:54:36;101690.16;;;20.63;30.32
47785;BME280;35233;55.686;37.848;2023-03-18T07:57:01;101674.81;;;20.67;30.55
47785;BME280;35233;55.686;37.848;2023-03-18T07:59:28;101683.97;;;20.85;30.59
47785;BME280;35233;55.686;37.848;2023-03-18T08:01:54;101683.13;;;20.83;30.82
47785;BME280;35233;55.686;37.848;2023-03-18T08:04:19;101690.88;;;20.92;30.80
47785;BME280;35233;55.686;37.848;2023-03-18T08:06:45;101676.13;;;21.02;31.10
47785;BME280;35233;55.686;37.848;2023-03-18T08:09:10;101681.00;;;21.14;30.80
47785;BME280;35233;55.686;37.848;2023-03-18T08:11:36;101683.53;;;21.19;31.00
47785;BME280;35233;55.686;37.848;2023-03-18T08:14:02;101678.63;;;21.29;30.81
47785;BME280;35233;55.686;37.848;2023-03-18T08:16:28;101665.28;;;21.27;31.50
47785;BME280;35233;55.686;37.848;2023-03-18T08:18:53;101686.22;;;21.41;31.71
47785;BME280;35233;55.686;37.848;2023-03-18T08:21:19;101689.75;;;21.43;31.48
47785;BME280;35233;55.686;37.848;2023-03-18T08:23:44;101689.47;;;21.49;31.73
47785;BME280;35233;55.686;37.848;2023-03-18T08:26:10;101677.84;;;21.48;31.69
47785;BME280;35233;55.686;37.848;2023-03-18T08:28:37;101684.66;;;21.57;32.02
47785;BME280;35233;55.686;37.848;2023-03-18T08:31:02;101693.44;;;21.62;31.71
47785;BME280;35233;55.686;37.848;2023-03-18T08:33:30;101686.31;;;21.61;31.94
47785;BME280;35233;55.686;37.848;2023-03-18T08:35:56;101675.41;;;21.64;31.58
47785;BME280;35233;55.686;37.848;2023-03-18T08:38:23;101683.28;;;21.69;31.57
47785;BME280;35233;55.686;37.848;2023-03-18T08:40:49;101683.88;;;21.76;31.10
47785;BME280;35233;55.686;37.848;2023-03-18T08:43:15;101686.56;;;21.76;31.22
47785;BME280;35233;55.686;37.848;2023-03-18T08:45:41;101667.25;;;21.66;30.95
47785;BME280;35233;55.686;37.848;2023-03-18T08:48:07;101674.16;;;21.73;30.62
47785;BME280;35233;55.686;37.848;2023-03-18T08:50:34;101678.06;;;21.86;30.61
47785;BME280;35233;55.686;37.848;2023-03-18T08:53:00;101681.47;;;21.90;30.59
47785;BME280;35233;55.686;37.848;2023-03-18T08:55:33;101678.78;;;21.90;30.68
47785;BME280;35233;55.686;37.848;2023-03-18T08:58:00;101676.78;;;21.95;31.19
47785;BME280;35233;55.686;37.848;2023-03-18T09:00:25;101673.25;;;21.93;31.07
47785;BME280;35233;55.686;37.848;2023-03-18T09:02:52;101671.41;;;21.95;30.83
47785;BME280;35233;55.686;37.848;2023-03-18T09:05:18;101672.06;;;22.00;31.53
47785;BME280;35233;55.686;37.848;2023-03-18T09:07:52;101672.06;;;22.00;31.18
47785;BME280;35233;55.686;37.848;2023-03-18T09:10:18;101656.06;;;21.97;31.28
47785;BME280;35233;55.686;37.848;2023-03-18T09:12:45;101664.69;;;22.05;30.90
47785;BME280;35233;55.686;37.848;2023-03-18T09:15:12;101663.00;;;22.03;31.01
47785;BME280;35233;55.686;37.848;2023-03-18T09:17:39;101661.84;;;22.08;30.76
47785;BME280;35233;55.686;37.848;2023-03-18T09:20:06;101659.16;;;22.08;30.09
47785;BME280;35233;55.686;37.848;2023-03-18T09:22:33;101646.75;;;22.04;30.02
47785;BME280;35233;55.686;37.848;2023-03-18T09:24:59;101660.97;;;22.08;30.15
47785;BME280;35233;55.686;37.848;2023-03-18T09:27:24;101666.41;;;22.06;30.05
47785;BME280;35233;55.686;37.848;2023-03-18T09:29:50;101639.78;;;22.00;29.81
47785;BME280;35233;55.686;37.848;2023-03-18T09:32:16;101658.81;;;22.16;29.01
47785;BME280;35233;55.686;37.848;2023-03-18T09:34:42;101653.50;;;22.14;29.07
47785;BME280;35233;55.686;37.848;2023-03-18T09:37:09;101643.78;;;22.10;28.95
47785;BME280;35233;55.686;37.848;2023-03-18T09:39:35;101651.56;;;22.18;28.90
47785;BME280;35233;55.686;37.848;2023-03-18T09:44:50;101632.16;;;22.10;28.79
47785;BME280;35233;55.686;37.848;2023-03-18T09:47:40;101630.84;;;22.20;29.12
47785;BME280;35233;55.686;37.848;2023-03-18T09:55:43;101628.16;;;22.20;30.17
47785;BME280;35233;55.686;37.848;2023-03-18T10:00:45;101627.72;;;22.29;29.94
47785;BME280;35233;55.686;37.848;2023-03-18T10:05:55;101612.31;;;22.33;30.13
47785;BME280;35233;55.686;37.848;2023-03-18T10:08:41;101615.00;;;22.33;30.02
47785;BME280;35233;55.686;37.848;2023-03-18T10:11:18;101605.38;;;22.27;30.15
47785;BME280;35233;55.686;37.848;2023-03-18T10:16:43;101611.44;;;22.32;29.54
47785;BME280;35233;55.686;37.848;2023-03-18T10:19:14;101608.78;;;22.31;29.51
47785;BME280;35233;55.686;37.848;2023-03-18T10:27:55;101610.47;;;22.33;28.94
47785;BME280;35233;55.686;37.848;2023-03-18T10:32:37;101581.88;;;22.31;28.11
47785;BME280;35233;55.686;37.848;2023-03-18T10:35:25;101572.16;;;22.28;27.65
47785;BME280;35233;55.686;37.848;2023-03-18T10:38:03;101599.50;;;22.38;27.52
47785;BME280;35233;55.686;37.848;2023-03-18T10:40:37;101588.59;;;22.41;27.58
47785;BME280;35233;55.686;37.848;2023-03-18T10:43:13;101580.50;;;22.41;27.67
47785;BME280;35233;55.686;37.848;2023-03-18T10:45:39;101565.22;;;22.42;27.37
47785;BME280;35233;55.686;37.848;2023-03-18T10:48:24;101571.47;;;22.42;27.81
47785;BME280;35233;55.686;37.848;2023-03-18T10:56:45;101564.22;;;22.44;27.64
47785;BME280;35233;55.686;37.848;2023-03-18T10:59:14;101554.38;;;22.43;28.41
47785;BME280;35233;55.686;37.848;2023-03-18T11:01:44;101561.22;;;22.50;29.39
47785;BME280;35233;55.686;37.848;2023-03-18T11:04:13;101551.56;;;22.46;30.71
47785;BME280;35233;55.686;37.848;2023-03-18T11:07:00;101560.25;;;22.51;31.39
47785;BME280;35233;55.686;37.848;2023-03-18T11:09:35;101553.13;;;22.50;31.54
47785;BME280;35233;55.686;37.848;2023-03-18T11:12:02;101559.25;;;22.54;31.54
47785;BME280;35233;55.686;37.848;2023-03-18T11:14:31;101544.47;;;22.44;31.64
47785;BME280;35233;55.686;37.848;2023-03-18T11:17:00;101558.38;;;22.53;32.13
47785;BME280;35233;55.686;37.848;2023-03-18T11:19:39;101543.31;;;22.49;32.12
47785;BME280;35233;55.686;37.848;2023-03-18T11:24:36;101546.94;;;22.48;31.59
47785;BME280;35233;55.686;37.848;2023-03-18T11:27:23;101551.91;;;22.57;31.82
47785;BME280;35233;55.686;37.848;2023-03-18T11:29:55;101544.09;;;22.51;30.77
47785;BME280;35233;55.686;37.848;2023-03-18T11:32:33;101542.22;;;22.53;30.92
47785;BME280;35233;55.686;37.848;2023-03-18T11:35:18;101545.72;;;22.55;30.23
47785;BME280;35233;55.686;37.848;2023-03-18T11:37:45;101542.00;;;22.58;30.05
47785;BME280;35233;55.686;37.848;2023-03-18T11:40:21;101520.00;;;22.48;29.86
47785;BME280;35233;55.686;37.848;2023-03-18T11:42:54;101528.09;;;22.48;29.95
47785;BME280;35233;55.686;37.848;2023-03-18T11:48:15;101528.91;;;22.50;30.65
47785;BME280;35233;55.686;37.848;2023-03-18T11:51:14;101534.06;;;22.55;30.84
47785;BME280;35233;55.686;37.848;2023-03-18T12:01:54;101528.69;;;22.55;31.09
47785;BME280;35233;55.686;37.848;2023-03-18T12:12:47;101525.34;;;22.50;31.47
47785;BME280;35233;55.686;37.848;2023-03-18T12:15:57;101530.63;;;22.51;31.44
47785;BME280;35233;55.686;37.848;2023-03-18T12:20:54;101508.91;;;22.37;31.38
47785;BME280;35233;55.686;37.848;2023-03-18T12:29:38;101513.75;;;22.48;31.68
47785;BME280;35233;55.686;37.848;2023-03-18T12:35:13;101511.56;;;22.56;33.02
47785;BME280;35233;55.686;37.848;2023-03-18T12:46:35;101499.78;;;22.58;33.19
47785;BME280;35233;55.686;37.848;2023-03-18T12:51:47;101487.53;;;22.51;34.09
47785;BME280;35233;55.686;37.848;2023-03-18T12:54:24;101478.75;;;22.48;34.17
47785;BME280;35233;55.686;37.848;2023-03-18T12:56:57;101493.59;;;22.56;34.25
47785;BME280;35233;55.686;37.848;2023-03-18T12:59:34;101490.88;;;22.56;34.34
47785;BME280;35233;55.686;37.848;2023-03-18T13:02:09;101447.25;;;22.31;34.60
47785;BME280;35233;55.686;37.848;2023-03-18T13:04:41;101483.09;;;22.50;34.95
47785;BME280;35233;55.686;37.848;2023-03-18T13:07:44;101471.47;;;22.50;34.80
47785;BME280;35233;55.686;37.848;2023-03-18T13:10:22;101473.94;;;22.54;34.51
47785;BME280;35233;55.686;37.848;2023-03-18T13:12:58;101481.22;;;22.52;34.47
47785;BME280;35233;55.686;37.848;2023-03-18T13:15:46;101474.72;;;22.56;34.97
47785;BME280;35233;55.686;37.848;2023-03-18T13:18:34;101475.69;;;22.55;35.02
47785;BME280;35233;55.686;37.848;2023-03-18T13:21:03;101469.44;;;22.55;35.25
47785;BME280;35233;55.686;37.848;2023-03-18T13:23:56;101474.72;;;22.56;34.91
47785;BME280;35233;55.686;37.848;2023-03-18T13:26:47;101471.00;;;22.59;34.25
47785;BME280;35233;55.686;37.848;2023-03-18T13:32:08;101449.63;;;22.56;34.13
47785;BME280;35233;55.686;37.848;2023-03-18T13:37:36;101451.06;;;22.63;34.04
47785;BME280;35233;55.686;37.848;2023-03-18T13:42:43;101445.38;;;22.69;33.42
47785;BME280;35233;55.686;37.848;2023-03-18T13:45:29;101438.16;;;22.70;33.17
47785;BME280;35233;55.686;37.848;2023-03-18T13:48:07;101439.50;;;22.78;33.07
47785;BME280;35233;55.686;37.848;2023-03-18T13:50:38;101433.09;;;22.81;32.92
47785;BME280;35233;55.686;37.848;2023-03-18T13:53:16;101429.59;;;22.79;32.51
47785;BME280;35233;55.686;37.848;2023-03-18T13:55:52;101418.72;;;22.80;32.55
47785;BME280;35233;55.686;37.848;2023-03-18T13:58:35;101428.97;;;22.91;32.53
47785;BME280;35233;55.686;37.848;2023-03-18T14:01:24;101434.19;;;22.94;32.68
47785;BME280;35233;55.686;37.848;2023-03-18T14:03:52;101429.41;;;23.01;32.35
47785;BME280;35233;55.686;37.848;2023-03-18T14:06:24;101403.78;;;22.92;32.29
47785;BME280;35233;55.686;37.848;2023-03-18T14:09:33;101423.72;;;23.07;32.25
47785;BME280;35233;55.686;37.848;2023-03-18T14:17:47;101414.25;;;23.16;31.82
47785;BME280;35233;55.686;37.848;2023-03-18T14:20:21;101403.53;;;23.14;31.91
47785;BME280;35233;55.686;37.848;2023-03-18T14:22:52;101399.88;;;23.15;31.83
47785;BME280;35233;55.686;37.848;2023-03-18T14:25:20;101416.47;;;23.25;31.68
47785;BME280;35233;55.686;37.848;2023-03-18T14:27:57;101402.97;;;23.25;32.09
47785;BME280;35233;55.686;37.848;2023-03-18T14:36:01;101409.53;;;23.37;31.52